sensor_id;sensor_type;location;lat;lon;timestamp;temperature;humidity
12819;DHT22;6474;53.474;9.894;2023-06-10T00:01:00;16.90;56.90
12819;DHT22;6474;53.474;9.894;2023-06-10T00:03:28;16.80;56.90
12819;DHT22;6474;53.474;9.894;2023-06-10T00:05:57;16.80;57.00
12819;DHT22;6474;53.474;9.894;2023-06-10T00:08:24;16.70;57.00
12819;DHT22;6474;53.474;9.894;2023-06-10T00:10:56;16.70;57.00
12819;DHT22;6474;53.474;9.894;2023-06-10T00:13:24;16.70;57.00
12819;DHT22;6474;53.474;9.894;2023-06-10T00:15:52;16.70;57.10
12819;DHT22;6474;53.474;9.894;2023-06-10T00:18:21;16.70;57.00
12819;DHT22;6474;53.474;9.894;2023-06-10T00:20:49;16.60;57.10
12819;DHT22;6474;53.474;9.894;2023-06-10T00:23:20;16.60;57.10
12819;DHT22;6474;53.474;9.894;2023-06-10T00:25:49;16.50;57.10
12819;DHT22;6474;53.474;9.894;2023-06-10T00:28:18;16.50;57.20
12819;DHT22;6474;53.474;9.894;2023-06-10T00:30:47;16.40;57.20
12819;DHT22;6474;53.474;9.894;2023-06-10T00:33:15;16.40;57.30
12819;DHT22;6474;53.474;9.894;2023-06-10T00:35:45;16.40;57.30
12819;DHT22;6474;53.474;9.894;2023-06-10T00:38:13;16.40;57.30
12819;DHT22;6474;53.474;9.894;2023-06-10T00:40:42;16.30;57.30
12819;DHT22;6474;53.474;9.894;2023-06-10T00:43:13;16.30;57.30
12819;DHT22;6474;53.474;9.894;2023-06-10T00:45:43;16.30;57.30
12819;DHT22;6474;53.474;9.894;2023-06-10T00:48:13;16.20;57.20
12819;DHT22;6474;53.474;9.894;2023-06-10T00:50:41;16.20;57.20
12819;DHT22;6474;53.474;9.894;2023-06-10T00:53:11;16.20;57.30
12819;DHT22;6474;53.474;9.894;2023-06-10T00:55:40;16.10;57.20
12819;DHT22;6474;53.474;9.894;2023-06-10T00:58:09;16.10;57.30
12819;DHT22;6474;53.474;9.894;2023-06-10T01:00:38;16.10;57.40
12819;DHT22;6474;53.474;9.894;2023-06-10T01:03:08;16.00;57.40
12819;DHT22;6474;53.474;9.894;2023-06-10T01:05:38;16.00;57.50
12819;DHT22;6474;53.474;9.894;2023-06-10T01:08:09;15.90;57.40
12819;DHT22;6474;53.474;9.894;2023-06-10T01:10:43;15.90;57.40
12819;DHT22;6474;53.474;9.894;2023-06-10T01:13:16;15.90;57.90
12819;DHT22;6474;53.474;9.894;2023-06-10T01:15:45;15.80;57.30
12819;DHT22;6474;53.474;9.894;2023-06-10T01:18:15;15.80;57.30
12819;DHT22;6474;53.474;9.894;2023-06-10T01:20:44;15.70;57.80
12819;DHT22;6474;53.474;9.894;2023-06-10T01:23:15;15.70;57.20
12819;DHT22;6474;53.474;9.894;2023-06-10T01:25:57;15.70;57.20
12819;DHT22;6474;53.474;9.894;2023-06-10T01:28:31;15.60;57.10
12819;DHT22;6474;53.474;9.894;2023-06-10T01:31:07;15.60;57.10
12819;DHT22;6474;53.474;9.894;2023-06-10T01:33:42;15.60;57.10
12819;DHT22;6474;53.474;9.894;2023-06-10T01:36:11;15.50;57.10
12819;DHT22;6474;53.474;9.894;2023-06-10T01:38:44;15.50;57.20
12819;DHT22;6474;53.474;9.894;2023-06-10T01:41:15;15.40;57.30
12819;DHT22;6474;53.474;9.894;2023-06-10T01:43:44;15.40;57.30
12819;DHT22;6474;53.474;9.894;2023-06-10T01:46:12;15.40;57.40
12819;DHT22;6474;53.474;9.894;2023-06-10T01:48:41;15.40;57.40
12819;DHT22;6474;53.474;9.894;2023-06-10T01:51:10;15.30;57.40
12819;DHT22;6474;53.474;9.894;2023-06-10T01:53:39;15.30;57.40
12819;DHT22;6474;53.474;9.894;2023-06-10T01:56:10;15.30;57.40
12819;DHT22;6474;53.474;9.894;2023-06-10T01:58:45;15.30;57.40
12819;DHT22;6474;53.474;9.894;2023-06-10T02:01:16;15.20;57.30
12819;DHT22;6474;53.474;9.894;2023-06-10T02:03:44;15.20;57.30
12819;DHT22;6474;53.474;9.894;2023-06-10T02:06:13;15.20;57.30
12819;DHT22;6474;53.474;9.894;2023-06-10T02:08:41;15.20;57.30
12819;DHT22;6474;53.474;9.894;2023-06-10T02:11:10;15.20;57.30
12819;DHT22;6474;53.474;9.894;2023-06-10T02:13:39;15.20;57.30
12819;DHT22;6474;53.474;9.894;2023-06-10T02:16:09;15.10;57.20
12819;DHT22;6474;53.474;9.894;2023-06-10T02:21:09;15.10;57.20
12819;DHT22;6474;53.474;9.894;2023-06-10T02:23:38;15.10;57.20
12819;DHT22;6474;53.474;9.894;2023-06-10T02:26:06;15.00;57.40
12819;DHT22;6474;53.474;9.894;2023-06-10T02:28:36;15.00;57.50
12819;DHT22;6474;53.474;9.894;2023-06-10T02:31:04;15.00;57.60
12819;DHT22;6474;53.474;9.894;2023-06-10T02:33:32;15.00;57.70
12819;DHT22;6474;53.474;9.894;2023-06-10T02:36:07;15.00;57.70
12819;DHT22;6474;53.474;9.894;2023-06-10T02:38:40;15.00;57.70
12819;DHT22;6474;53.474;9.894;2023-06-10T02:41:08;15.00;57.60
12819;DHT22;6474;53.474;9.894;2023-06-10T02:43:37;15.00;57.60
12819;DHT22;6474;53.474;9.894;2023-06-10T02:46:06;15.00;57.60
12819;DHT22;6474;53.474;9.894;2023-06-10T02:48:41;14.90;57.50
12819;DHT22;6474;53.474;9.894;2023-06-10T02:51:09;14.90;57.60
12819;DHT22;6474;53.474;9.894;2023-06-10T02:53:38;14.90;57.60
12819;DHT22;6474;53.474;9.894;2023-06-10T02:56:08;14.90;57.60
12819;DHT22;6474;53.474;9.894;2023-06-10T02:58:38;14.90;57.60
12819;DHT22;6474;53.474;9.894;2023-06-10T03:01:08;14.90;57.60
12819;DHT22;6474;53.474;9.894;2023-06-10T03:03:37;14.90;57.60
12819;DHT22;6474;53.474;9.894;2023-06-10T03:06:10;14.90;57.60
12819;DHT22;6474;53.474;9.894;2023-06-10T03:08:39;14.90;57.60
12819;DHT22;6474;53.474;9.894;2023-06-10T03:11:06;14.90;57.60
12819;DHT22;6474;53.474;9.894;2023-06-10T03:13:34;14.90;57.60
12819;DHT22;6474;53.474;9.894;2023-06-10T03:16:04;14.90;57.60
12819;DHT22;6474;53.474;9.894;2023-06-10T03:18:32;14.90;57.60
12819;DHT22;6474;53.474;9.894;2023-06-10T03:21:00;14.90;57.60
12819;DHT22;6474;53.474;9.894;2023-06-10T03:23:29;14.90;57.50
12819;DHT22;6474;53.474;9.894;2023-06-10T03:25:57;14.90;57.50
12819;DHT22;6474;53.474;9.894;2023-06-10T03:28:25;15.00;57.50
12819;DHT22;6474;53.474;9.894;2023-06-10T03:30:52;14.90;57.40
12819;DHT22;6474;53.474;9.894;2023-06-10T03:33:22;14.90;57.40
12819;DHT22;6474;53.474;9.894;2023-06-10T03:35:50;14.90;57.40
12819;DHT22;6474;53.474;9.894;2023-06-10T03:38:18;15.00;57.50
12819;DHT22;6474;53.474;9.894;2023-06-10T03:40:47;15.00;57.50
12819;DHT22;6474;53.474;9.894;2023-06-10T03:43:14;15.00;57.20
12819;DHT22;6474;53.474;9.894;2023-06-10T03:45:42;15.00;57.40
12819;DHT22;6474;53.474;9.894;2023-06-10T03:48:10;15.00;57.60
12819;DHT22;6474;53.474;9.894;2023-06-10T03:50:39;15.10;57.80
12819;DHT22;6474;53.474;9.894;2023-06-10T03:53:07;15.30;57.80
12819;DHT22;6474;53.474;9.894;2023-06-10T03:55:35;15.30;57.40
12819;DHT22;6474;53.474;9.894;2023-06-10T03:58:03;15.30;57.40
12819;DHT22;6474;53.474;9.894;2023-06-10T04:00:31;15.40;57.40
12819;DHT22;6474;53.474;9.894;2023-06-10T04:03:08;15.30;57.30
12819;DHT22;6474;53.474;9.894;2023-06-10T04:05:42;15.30;57.30
12819;DHT22;6474;53.474;9.894;2023-06-10T04:08:10;15.40;57.40
12819;DHT22;6474;53.474;9.894;2023-06-10T04:10:38;15.30;57.30
12819;DHT22;6474;53.474;9.894;2023-06-10T04:13:06;15.30;57.30
12819;DHT22;6474;53.474;9.894;2023-06-10T04:15:33;15.40;57.40
12819;DHT22;6474;53.474;9.894;2023-06-10T04:18:01;15.40;57.40
12819;DHT22;6474;53.474;9.894;2023-06-10T04:20:29;15.40;57.50
12819;DHT22;6474;53.474;9.894;2023-06-10T04:22:59;15.40;57.50
12819;DHT22;6474;53.474;9.894;2023-06-10T04:25:27;15.40;57.40
12819;DHT22;6474;53.474;9.894;2023-06-10T04:27:55;15.40;57.40
12819;DHT22;6474;53.474;9.894;2023-06-10T04:30:23;15.50;57.50
12819;DHT22;6474;53.474;9.894;2023-06-10T04:32:51;15.60;57.70
12819;DHT22;6474;53.474;9.894;2023-06-10T04:35:19;15.80;57.80
12819;DHT22;6474;53.474;9.894;2023-06-10T04:37:47;15.90;57.40
12819;DHT22;6474;53.474;9.894;2023-06-10T04:40:16;16.10;57.50
12819;DHT22;6474;53.474;9.894;2023-06-10T04:42:44;16.30;57.60
12819;DHT22;6474;53.474;9.894;2023-06-10T04:45:12;16.30;57.20
12819;DHT22;6474;53.474;9.894;2023-06-10T04:47:40;16.40;57.10
12819;DHT22;6474;53.474;9.894;2023-06-10T04:50:08;16.40;57.10
12819;DHT22;6474;53.474;9.894;2023-06-10T04:52:36;16.50;57.20
12819;DHT22;6474;53.474;9.894;2023-06-10T04:55:05;16.50;57.20
12819;DHT22;6474;53.474;9.894;2023-06-10T04:57:34;16.50;57.20
12819;DHT22;6474;53.474;9.894;2023-06-10T05:00:03;16.60;57.30
12819;DHT22;6474;53.474;9.894;2023-06-10T05:02:32;16.70;57.30
12819;DHT22;6474;53.474;9.894;2023-06-10T05:05:00;16.80;57.20
12819;DHT22;6474;53.474;9.894;2023-06-10T05:07:28;16.80;57.20
12819;DHT22;6474;53.474;9.894;2023-06-10T05:09:56;16.90;57.20
12819;DHT22;6474;53.474;9.894;2023-06-10T05:12:24;17.00;57.20
12819;DHT22;6474;53.474;9.894;2023-06-10T05:14:53;17.00;57.20
12819;DHT22;6474;53.474;9.894;2023-06-10T05:17:21;17.00;57.20
12819;DHT22;6474;53.474;9.894;2023-06-10T05:19:49;17.10;57.30
12819;DHT22;6474;53.474;9.894;2023-06-10T05:22:17;17.10;57.40
12819;DHT22;6474;53.474;9.894;2023-06-10T05:24:45;17.20;57.40
12819;DHT22;6474;53.474;9.894;2023-06-10T05:27:13;17.30;57.50
12819;DHT22;6474;53.474;9.894;2023-06-10T05:29:41;17.40;57.40
12819;DHT22;6474;53.474;9.894;2023-06-10T05:32:10;17.40;57.30
12819;DHT22;6474;53.474;9.894;2023-06-10T05:34:38;17.40;57.30
12819;DHT22;6474;53.474;9.894;2023-06-10T05:37:06;17.50;57.20
12819;DHT22;6474;53.474;9.894;2023-06-10T05:39:35;17.40;57.20
12819;DHT22;6474;53.474;9.894;2023-06-10T05:42:06;17.40;57.30
12819;DHT22;6474;53.474;9.894;2023-06-10T05:44:34;17.40;57.40
12819;DHT22;6474;53.474;9.894;2023-06-10T05:47:02;17.40;57.30
12819;DHT22;6474;53.474;9.894;2023-06-10T05:49:31;17.40;57.40
12819;DHT22;6474;53.474;9.894;2023-06-10T05:51:59;17.40;57.30
12819;DHT22;6474;53.474;9.894;2023-06-10T05:54:27;17.40;57.30
12819;DHT22;6474;53.474;9.894;2023-06-10T05:56:56;17.40;57.50
12819;DHT22;6474;53.474;9.894;2023-06-10T05:59:24;17.30;57.50
12819;DHT22;6474;53.474;9.894;2023-06-10T06:01:52;17.30;57.50
12819;DHT22;6474;53.474;9.894;2023-06-10T06:04:19;17.40;57.70
12819;DHT22;6474;53.474;9.894;2023-06-10T06:06:49;17.50;57.80
12819;DHT22;6474;53.474;9.894;2023-06-10T06:09:17;17.60;57.70
12819;DHT22;6474;53.474;9.894;2023-06-10T06:11:44;17.90;57.60
12819;DHT22;6474;53.474;9.894;2023-06-10T06:14:12;18.20;57.30
12819;DHT22;6474;53.474;9.894;2023-06-10T06:16:41;18.40;57.00
12819;DHT22;6474;53.474;9.894;2023-06-10T06:19:09;18.80;56.90
12819;DHT22;6474;53.474;9.894;2023-06-10T06:21:37;19.00;56.50
12819;DHT22;6474;53.474;9.894;2023-06-10T06:24:07;19.20;56.20
12819;DHT22;6474;53.474;9.894;2023-06-10T06:26:35;19.20;56.10
12819;DHT22;6474;53.474;9.894;2023-06-10T06:29:03;19.20;56.10
12819;DHT22;6474;53.474;9.894;2023-06-10T06:31:31;19.20;55.90
12819;DHT22;6474;53.474;9.894;2023-06-10T06:33:59;19.30;55.90
12819;DHT22;6474;53.474;9.894;2023-06-10T06:36:27;19.30;55.90
12819;DHT22;6474;53.474;9.894;2023-06-10T06:38:55;19.30;55.90
12819;DHT22;6474;53.474;9.894;2023-06-10T06:41:26;19.20;55.90
12819;DHT22;6474;53.474;9.894;2023-06-10T06:43:54;19.10;56.00
12819;DHT22;6474;53.474;9.894;2023-06-10T06:46:21;19.00;56.20
12819;DHT22;6474;53.474;9.894;2023-06-10T06:48:49;18.90;56.30
12819;DHT22;6474;53.474;9.894;2023-06-10T06:51:17;18.80;56.40
12819;DHT22;6474;53.474;9.894;2023-06-10T06:53:45;18.80;56.50
12819;DHT22;6474;53.474;9.894;2023-06-10T06:56:13;18.80;56.50
12819;DHT22;6474;53.474;9.894;2023-06-10T06:58:42;18.80;56.70
12819;DHT22;6474;53.474;9.894;2023-06-10T07:01:10;18.80;56.90
12819;DHT22;6474;53.474;9.894;2023-06-10T07:03:38;18.90;57.70
12819;DHT22;6474;53.474;9.894;2023-06-10T07:06:06;19.10;57.10
12819;DHT22;6474;53.474;9.894;2023-06-10T07:08:34;19.30;57.10
12819;DHT22;6474;53.474;9.894;2023-06-10T07:11:02;19.40;57.10
12819;DHT22;6474;53.474;9.894;2023-06-10T07:13:29;19.50;57.20
12819;DHT22;6474;53.474;9.894;2023-06-10T07:15:59;19.60;57.70
12819;DHT22;6474;53.474;9.894;2023-06-10T07:18:27;19.70;57.20
12819;DHT22;6474;53.474;9.894;2023-06-10T07:20:54;19.70;57.20
12819;DHT22;6474;53.474;9.894;2023-06-10T07:23:22;19.80;57.20
12819;DHT22;6474;53.474;9.894;2023-06-10T07:25:50;19.80;57.30
12819;DHT22;6474;53.474;9.894;2023-06-10T07:28:18;19.80;57.20
12819;DHT22;6474;53.474;9.894;2023-06-10T07:30:46;19.90;57.30
12819;DHT22;6474;53.474;9.894;2023-06-10T07:33:16;19.90;57.30
12819;DHT22;6474;53.474;9.894;2023-06-10T07:35:43;19.90;57.30
12819;DHT22;6474;53.474;9.894;2023-06-10T07:38:11;19.80;57.20
12819;DHT22;6474;53.474;9.894;2023-06-10T07:40:39;19.80;57.30
12819;DHT22;6474;53.474;9.894;2023-06-10T07:43:07;19.80;57.40
12819;DHT22;6474;53.474;9.894;2023-06-10T07:45:34;19.70;57.20
12819;DHT22;6474;53.474;9.894;2023-06-10T07:48:02;19.70;57.20
12819;DHT22;6474;53.474;9.894;2023-06-10T07:50:32;19.80;57.30
12819;DHT22;6474;53.474;9.894;2023-06-10T07:53:00;19.70;57.20
12819;DHT22;6474;53.474;9.894;2023-06-10T07:55:28;19.70;57.30
12819;DHT22;6474;53.474;9.894;2023-06-10T07:57:55;19.70;57.20
12819;DHT22;6474;53.474;9.894;2023-06-10T08:00:24;19.80;57.30
12819;DHT22;6474;53.474;9.894;2023-06-10T08:02:52;19.90;57.30
12819;DHT22;6474;53.474;9.894;2023-06-10T08:05:20;19.90;57.30
12819;DHT22;6474;53.474;9.894;2023-06-10T08:07:50;20.00;57.30
12819;DHT22;6474;53.474;9.894;2023-06-10T08:10:24;20.00;57.30
12819;DHT22;6474;53.474;9.894;2023-06-10T08:12:52;20.10;57.40
12819;DHT22;6474;53.474;9.894;2023-06-10T08:15:20;20.20;57.40
12819;DHT22;6474;53.474;9.894;2023-06-10T08:17:48;20.20;57.20
12819;DHT22;6474;53.474;9.894;2023-06-10T08:20:17;20.30;57.20
12819;DHT22;6474;53.474;9.894;2023-06-10T08:22:45;20.30;57.20
12819;DHT22;6474;53.474;9.894;2023-06-10T08:25:14;20.40;57.20
12819;DHT22;6474;53.474;9.894;2023-06-10T08:27:42;20.50;57.30
12819;DHT22;6474;53.474;9.894;2023-06-10T08:30:11;20.50;57.30
12819;DHT22;6474;53.474;9.894;2023-06-10T08:32:39;20.50;57.20
12819;DHT22;6474;53.474;9.894;2023-06-10T08:35:08;20.60;57.30
12819;DHT22;6474;53.474;9.894;2023-06-10T08:37:36;20.70;57.30
12819;DHT22;6474;53.474;9.894;2023-06-10T08:40:05;20.80;57.30
12819;DHT22;6474;53.474;9.894;2023-06-10T08:42:39;20.80;57.10
12819;DHT22;6474;53.474;9.894;2023-06-10T08:45:08;21.00;57.30
12819;DHT22;6474;53.474;9.894;2023-06-10T08:47:42;21.00;57.30
12819;DHT22;6474;53.474;9.894;2023-06-10T08:50:11;21.10;57.40
12819;DHT22;6474;53.474;9.894;2023-06-10T08:52:43;21.20;57.40
12819;DHT22;6474;53.474;9.894;2023-06-10T08:55:14;21.20;57.30
12819;DHT22;6474;53.474;9.894;2023-06-10T08:57:46;21.30;57.30
12819;DHT22;6474;53.474;9.894;2023-06-10T09:00:16;21.40;57.30
12819;DHT22;6474;53.474;9.894;2023-06-10T09:02:44;21.40;57.30
12819;DHT22;6474;53.474;9.894;2023-06-10T09:05:13;21.40;57.20
12819;DHT22;6474;53.474;9.894;2023-06-10T09:07:41;21.60;57.30
12819;DHT22;6474;53.474;9.894;2023-06-10T09:10:11;21.70;57.30
12819;DHT22;6474;53.474;9.894;2023-06-10T09:12:39;21.70;57.10
12819;DHT22;6474;53.474;9.894;2023-06-10T09:15:09;21.80;57.10
12819;DHT22;6474;53.474;9.894;2023-06-10T09:17:39;21.90;57.10
12819;DHT22;6474;53.474;9.894;2023-06-10T09:20:08;21.90;57.10
12819;DHT22;6474;53.474;9.894;2023-06-10T09:22:37;22.00;57.10
12819;DHT22;6474;53.474;9.894;2023-06-10T09:25:06;22.10;57.00
12819;DHT22;6474;53.474;9.894;2023-06-10T09:27:44;22.20;57.00
12819;DHT22;6474;53.474;9.894;2023-06-10T09:30:26;22.30;56.90
12819;DHT22;6474;53.474;9.894;2023-06-10T09:32:56;22.40;57.00
12819;DHT22;6474;53.474;9.894;2023-06-10T09:35:25;22.40;57.00
12819;DHT22;6474;53.474;9.894;2023-06-10T09:37:55;22.50;57.10
12819;DHT22;6474;53.474;9.894;2023-06-10T09:40:23;22.60;57.00
12819;DHT22;6474;53.474;9.894;2023-06-10T09:42:53;22.80;57.00
12819;DHT22;6474;53.474;9.894;2023-06-10T09:45:23;22.80;56.80
12819;DHT22;6474;53.474;9.894;2023-06-10T09:47:55;22.90;56.80
12819;DHT22;6474;53.474;9.894;2023-06-10T09:50:23;23.00;56.90
12819;DHT22;6474;53.474;9.894;2023-06-10T09:52:51;23.00;56.80
12819;DHT22;6474;53.474;9.894;2023-06-10T09:55:19;23.10;56.90
12819;DHT22;6474;53.474;9.894;2023-06-10T09:57:49;23.10;56.80
12819;DHT22;6474;53.474;9.894;2023-06-10T10:00:18;23.20;57.50
12819;DHT22;6474;53.474;9.894;2023-06-10T10:02:47;23.30;56.90
12819;DHT22;6474;53.474;9.894;2023-06-10T10:05:18;23.40;56.80
12819;DHT22;6474;53.474;9.894;2023-06-10T10:07:47;23.50;56.80
12819;DHT22;6474;53.474;9.894;2023-06-10T10:10:17;23.60;56.80
12819;DHT22;6474;53.474;9.894;2023-06-10T10:12:47;23.60;56.80
12819;DHT22;6474;53.474;9.894;2023-06-10T10:15:16;23.70;56.80
12819;DHT22;6474;53.474;9.894;2023-06-10T10:17:48;23.80;56.80
12819;DHT22;6474;53.474;9.894;2023-06-10T10:20:22;23.80;56.80
12819;DHT22;6474;53.474;9.894;2023-06-10T10:22:52;23.90;56.70
12819;DHT22;6474;53.474;9.894;2023-06-10T10:25:27;24.00;56.80
12819;DHT22;6474;53.474;9.894;2023-06-10T10:27:58;24.10;56.70
12819;DHT22;6474;53.474;9.894;2023-06-10T10:30:28;24.20;56.70
12819;DHT22;6474;53.474;9.894;2023-06-10T10:32:58;24.40;56.70
12819;DHT22;6474;53.474;9.894;2023-06-10T10:35:30;24.40;56.60
12819;DHT22;6474;53.474;9.894;2023-06-10T10:38:00;24.60;56.60
12819;DHT22;6474;53.474;9.894;2023-06-10T10:40:29;24.60;56.50
12819;DHT22;6474;53.474;9.894;2023-06-10T10:42:59;24.70;56.50
12819;DHT22;6474;53.474;9.894;2023-06-10T10:45:27;24.80;56.40
12819;DHT22;6474;53.474;9.894;2023-06-10T10:47:56;24.80;56.50
12819;DHT22;6474;53.474;9.894;2023-06-10T10:50:29;24.80;56.50
12819;DHT22;6474;53.474;9.894;2023-06-10T10:53:01;24.90;56.60
12819;DHT22;6474;53.474;9.894;2023-06-10T10:55:29;24.90;56.60
12819;DHT22;6474;53.474;9.894;2023-06-10T10:57:58;25.00;56.60
12819;DHT22;6474;53.474;9.894;2023-06-10T11:00:31;25.00;56.60
12819;DHT22;6474;53.474;9.894;2023-06-10T11:03:02;25.10;56.60
12819;DHT22;6474;53.474;9.894;2023-06-10T11:05:39;25.10;56.60
12819;DHT22;6474;53.474;9.894;2023-06-10T11:08:08;25.20;56.60
12819;DHT22;6474;53.474;9.894;2023-06-10T11:10:38;25.30;56.50
12819;DHT22;6474;53.474;9.894;2023-06-10T11:13:07;25.30;56.40
12819;DHT22;6474;53.474;9.894;2023-06-10T11:15:40;25.40;56.50
12819;DHT22;6474;53.474;9.894;2023-06-10T11:21:01;25.60;56.60
12819;DHT22;6474;53.474;9.894;2023-06-10T11:23:34;25.60;56.60
12819;DHT22;6474;53.474;9.894;2023-06-10T11:26:19;25.60;56.60
12819;DHT22;6474;53.474;9.894;2023-06-10T11:29:06;25.70;56.60
12819;DHT22;6474;53.474;9.894;2023-06-10T11:31:48;25.80;56.70
12819;DHT22;6474;53.474;9.894;2023-06-10T11:34:22;25.90;56.60
12819;DHT22;6474;53.474;9.894;2023-06-10T11:36:55;25.90;56.60
12819;DHT22;6474;53.474;9.894;2023-06-10T11:39:23;25.90;56.60
12819;DHT22;6474;53.474;9.894;2023-06-10T11:41:53;26.00;56.60
12819;DHT22;6474;53.474;9.894;2023-06-10T11:44:27;26.00;56.60
12819;DHT22;6474;53.474;9.894;2023-06-10T11:46:56;26.00;56.50
12819;DHT22;6474;53.474;9.894;2023-06-10T11:49:24;26.10;56.60
12819;DHT22;6474;53.474;9.894;2023-06-10T11:51:52;26.10;56.50
12819;DHT22;6474;53.474;9.894;2023-06-10T11:54:21;26.20;56.60
12819;DHT22;6474;53.474;9.894;2023-06-10T11:56:49;26.20;56.50
12819;DHT22;6474;53.474;9.894;2023-06-10T11:59:17;26.30;56.50
12819;DHT22;6474;53.474;9.894;2023-06-10T12:01:45;26.30;56.40
12819;DHT22;6474;53.474;9.894;2023-06-10T12:04:15;26.40;56.40
12819;DHT22;6474;53.474;9.894;2023-06-10T12:06:46;26.50;56.40
12819;DHT22;6474;53.474;9.894;2023-06-10T12:09:17;26.50;56.90
12819;DHT22;6474;53.474;9.894;2023-06-10T12:11:55;26.60;56.40
12819;DHT22;6474;53.474;9.894;2023-06-10T12:14:51;26.60;56.30
12819;DHT22;6474;53.474;9.894;2023-06-10T12:17:22;26.70;56.30
12819;DHT22;6474;53.474;9.894;2023-06-10T12:19:50;26.70;56.20
12819;DHT22;6474;53.474;9.894;2023-06-10T12:22:18;26.80;56.30
12819;DHT22;6474;53.474;9.894;2023-06-10T12:24:58;26.80;56.30
12819;DHT22;6474;53.474;9.894;2023-06-10T12:27:31;26.80;56.30
12819;DHT22;6474;53.474;9.894;2023-06-10T12:30:01;26.80;56.80
12819;DHT22;6474;53.474;9.894;2023-06-10T12:32:39;26.80;56.30
12819;DHT22;6474;53.474;9.894;2023-06-10T12:35:09;26.80;56.30
12819;DHT22;6474;53.474;9.894;2023-06-10T12:37:38;26.90;56.40
12819;DHT22;6474;53.474;9.894;2023-06-10T12:40:09;26.90;56.40
12819;DHT22;6474;53.474;9.894;2023-06-10T12:42:39;27.00;56.40
12819;DHT22;6474;53.474;9.894;2023-06-10T12:45:09;27.10;56.70
12819;DHT22;6474;53.474;9.894;2023-06-10T12:47:37;27.10;56.30
12819;DHT22;6474;53.474;9.894;2023-06-10T12:50:07;27.10;56.30
12819;DHT22;6474;53.474;9.894;2023-06-10T12:52:36;27.10;56.30
12819;DHT22;6474;53.474;9.894;2023-06-10T12:55:04;27.20;56.30
12819;DHT22;6474;53.474;9.894;2023-06-10T12:57:33;27.20;56.30
12819;DHT22;6474;53.474;9.894;2023-06-10T13:00:02;27.30;56.30
12819;DHT22;6474;53.474;9.894;2023-06-10T13:02:35;27.30;56.30
12819;DHT22;6474;53.474;9.894;2023-06-10T13:05:03;27.20;56.30
12819;DHT22;6474;53.474;9.894;2023-06-10T13:07:31;27.20;56.40
12819;DHT22;6474;53.474;9.894;2023-06-10T13:09:59;27.10;56.30
12819;DHT22;6474;53.474;9.894;2023-06-10T13:12:27;27.30;56.40
12819;DHT22;6474;53.474;9.894;2023-06-10T13:15:13;27.30;56.40
12819;DHT22;6474;53.474;9.894;2023-06-10T13:17:42;27.30;56.30
12819;DHT22;6474;53.474;9.894;2023-06-10T13:20:10;27.40;56.30
12819;DHT22;6474;53.474;9.894;2023-06-10T13:22:38;27.50;56.20
12819;DHT22;6474;53.474;9.894;2023-06-10T13:25:06;27.50;56.20
12819;DHT22;6474;53.474;9.894;2023-06-10T13:27:36;27.60;56.20
12819;DHT22;6474;53.474;9.894;2023-06-10T13:30:07;27.60;56.10
12819;DHT22;6474;53.474;9.894;2023-06-10T13:32:36;27.60;56.10
12819;DHT22;6474;53.474;9.894;2023-06-10T13:35:05;27.50;56.10
12819;DHT22;6474;53.474;9.894;2023-06-10T13:37:34;27.60;56.20
12819;DHT22;6474;53.474;9.894;2023-06-10T13:40:03;27.70;56.20
12819;DHT22;6474;53.474;9.894;2023-06-10T13:42:32;27.70;56.00
12819;DHT22;6474;53.474;9.894;2023-06-10T13:45:00;27.80;55.90
12819;DHT22;6474;53.474;9.894;2023-06-10T13:47:28;27.90;55.90
12819;DHT22;6474;53.474;9.894;2023-06-10T13:49:57;28.00;55.80
12819;DHT22;6474;53.474;9.894;2023-06-10T13:52:25;28.00;55.80
12819;DHT22;6474;53.474;9.894;2023-06-10T13:54:53;28.00;55.70
12819;DHT22;6474;53.474;9.894;2023-06-10T13:57:21;28.10;55.80
12819;DHT22;6474;53.474;9.894;2023-06-10T13:59:49;28.20;55.70
12819;DHT22;6474;53.474;9.894;2023-06-10T14:02:17;28.30;55.60
12819;DHT22;6474;53.474;9.894;2023-06-10T14:04:45;28.30;55.40
12819;DHT22;6474;53.474;9.894;2023-06-10T14:07:15;28.40;55.50
12819;DHT22;6474;53.474;9.894;2023-06-10T14:09:43;28.40;55.50
12819;DHT22;6474;53.474;9.894;2023-06-10T14:12:11;28.40;55.50
12819;DHT22;6474;53.474;9.894;2023-06-10T14:14:39;28.40;55.50
12819;DHT22;6474;53.474;9.894;2023-06-10T14:17:07;28.40;55.50
12819;DHT22;6474;53.474;9.894;2023-06-10T14:19:36;28.40;55.50
12819;DHT22;6474;53.474;9.894;2023-06-10T14:22:04;28.50;55.50
12819;DHT22;6474;53.474;9.894;2023-06-10T14:24:35;28.60;55.60
12819;DHT22;6474;53.474;9.894;2023-06-10T14:27:04;28.70;55.60
12819;DHT22;6474;53.474;9.894;2023-06-10T14:29:33;28.80;55.50
12819;DHT22;6474;53.474;9.894;2023-06-10T14:32:01;28.80;55.40
12819;DHT22;6474;53.474;9.894;2023-06-10T14:34:34;28.90;55.50
12819;DHT22;6474;53.474;9.894;2023-06-10T14:37:02;28.90;55.40
12819;DHT22;6474;53.474;9.894;2023-06-10T14:39:35;28.90;55.40
12819;DHT22;6474;53.474;9.894;2023-06-10T14:42:03;28.80;55.40
12819;DHT22;6474;53.474;9.894;2023-06-10T14:44:31;28.80;55.40
12819;DHT22;6474;53.474;9.894;2023-06-10T14:46:59;28.80;55.40
12819;DHT22;6474;53.474;9.894;2023-06-10T14:49:27;28.70;55.50
12819;DHT22;6474;53.474;9.894;2023-06-10T14:51:55;28.30;55.40
12819;DHT22;6474;53.474;9.894;2023-06-10T14:54:23;28.10;55.80
12819;DHT22;6474;53.474;9.894;2023-06-10T14:56:52;28.10;56.00
12819;DHT22;6474;53.474;9.894;2023-06-10T14:59:20;28.10;55.90
12819;DHT22;6474;53.474;9.894;2023-06-10T15:01:47;28.10;55.90
12819;DHT22;6474;53.474;9.894;2023-06-10T15:04:15;28.10;55.90
12819;DHT22;6474;53.474;9.894;2023-06-10T15:06:47;28.10;55.80
12819;DHT22;6474;53.474;9.894;2023-06-10T15:09:15;28.20;55.80
12819;DHT22;6474;53.474;9.894;2023-06-10T15:11:43;28.30;55.70
12819;DHT22;6474;53.474;9.894;2023-06-10T15:14:12;28.20;55.60
12819;DHT22;6474;53.474;9.894;2023-06-10T15:16:40;28.10;55.50
12819;DHT22;6474;53.474;9.894;2023-06-10T15:19:08;28.10;55.60
12819;DHT22;6474;53.474;9.894;2023-06-10T15:21:36;28.10;55.60
12819;DHT22;6474;53.474;9.894;2023-06-10T15:24:05;28.10;55.60
12819;DHT22;6474;53.474;9.894;2023-06-10T15:26:33;28.20;55.60
12819;DHT22;6474;53.474;9.894;2023-06-10T15:29:01;28.20;55.50
12819;DHT22;6474;53.474;9.894;2023-06-10T15:31:32;28.10;55.50
12819;DHT22;6474;53.474;9.894;2023-06-10T15:34:00;28.10;55.50
12819;DHT22;6474;53.474;9.894;2023-06-10T15:36:28;28.10;55.50
12819;DHT22;6474;53.474;9.894;2023-06-10T15:39:01;28.10;55.50
12819;DHT22;6474;53.474;9.894;2023-06-10T15:41:29;28.10;55.50
12819;DHT22;6474;53.474;9.894;2023-06-10T15:43:57;28.00;55.40
12819;DHT22;6474;53.474;9.894;2023-06-10T15:46:26;28.10;55.50
12819;DHT22;6474;53.474;9.894;2023-06-10T15:48:56;28.10;55.50
12819;DHT22;6474;53.474;9.894;2023-06-10T15:51:24;28.10;55.40
12819;DHT22;6474;53.474;9.894;2023-06-10T15:53:52;28.10;55.40
12819;DHT22;6474;53.474;9.894;2023-06-10T15:56:20;28.00;55.20
12819;DHT22;6474;53.474;9.894;2023-06-10T15:58:49;27.90;55.40
12819;DHT22;6474;53.474;9.894;2023-06-10T16:01:17;27.90;55.40
12819;DHT22;6474;53.474;9.894;2023-06-10T16:03:45;27.80;55.40